Hovedside
METAR-TAF:

METAR-TAF

Lufthavner :

M. R. Štefánik lufthavn

Bratislava, Slovakia

breddegrad: 48-12N, lengdegrad: 017-12E, høyde over havet: 133 m

Gjeldene værobservasjon

Denne rapporten ble laget for 18 minutter siden, klokken 11:30 UTC
Vind 6 kt fra Sør-sørøst, skiftende mellom Øst-sørøst og Sør-sørvest
Temperatur 29°C
Luftfuktighet 55%
Trykk 1013 hPa
Sikt 10 km eller mer
ingen skyer under 1500 m og ingen bygeskyer

METAR: LZIB 191130Z 16006KT 120V200 CAVOK 29/19 Q1013 NOSIG

Tid: 13:48 (11:48 UTC)

Varsel

Denne rapporten ble laget for 33 minutter siden, klokken 11:15 UTC
Varsel gyldig fra 19. klokken 12 UTC til 20. klokken 12 UTC
Vind 6 kt fra Øst
Sikt 10 km eller mer
ingen skyer under 1500 m og ingen bygeskyer
Blir
fra 19. klokken 22 UTC til 20. klokken 00 UTC
Vind 7 kt fra Nord-nordøst

TAF: LZIB 191115Z 1912/2012 09006KT CAVOK BECMG 1922/2000 02007KT

Værobservasjoner og værvarsel for over 4000 flyplasser (METAR- og TAF-rapporter).

Tilgjengelige stasjoner er representert av de røde og gule prikkene på kartet.

Hold musepekeren over prikken for å se navnet på stasjonen.

Klikk så for å se værobservasjoner og -varsler.

For å forandre kartet kan du klikke på den grønne knappen med svart kryss for å zoome inn, på den grønne knappen med strek for å zoome ut, eller på de grønne pilene for å se tilstøtende kart.


METAR-TAF: